Time;durP1;ratioP1;P1;durP2;ratioP2;P2;SDS_P1;SDS_P2;PMS_P1;PMS_P2;Temp;Humidity;BMP_temperature;BMP_pressure;BME280_temperature;BME280_humidity;BME280_pressure;Samples;Min_cycle;Max_cycle;Signal;HPM_P1;HPM_P2
2023/11/27 00:01:00;;;;;;;8.80;5.00;;;;;;;6.39;94.04;97834.22;4172683;28;20288;-89
2023/11/27 00:03:04;;;;;;;9.77;4.93;;;;;;;6.36;93.62;97825.75;4185005;28;20206;-89
2023/11/27 00:05:07;;;;;;;9.70;5.55;;;;;;;6.35;93.60;97829.28;4188132;28;20202;-88
2023/11/27 00:07:10;;;;;;;19.08;6.88;;;;;;;6.35;93.74;97830.13;4174405;28;20250;-88
2023/11/27 00:09:15;;;;;;;12.95;5.75;;;;;;;6.34;94.42;97828.44;4184406;28;20648;-89
2023/11/27 00:11:18;;;;;;;12.43;6.43;;;;;;;6.34;93.63;97825.84;4189560;28;20209;-88
2023/11/27 00:13:20;;;;;;;13.63;6.20;;;;;;;6.34;93.31;97825.03;4188522;28;20203;-89
2023/11/27 00:15:23;;;;;;;12.30;6.35;;;;;;;6.33;93.04;97823.34;4191203;28;20644;-88
2023/11/27 00:17:27;;;;;;;8.57;5.22;;;;;;;6.32;93.53;97813.94;4190727;28;20759;-88
2023/11/27 00:19:30;;;;;;;13.80;6.25;;;;;;;6.30;93.59;97816.59;4187821;28;20294;-88
2023/11/27 00:21:34;;;;;;;11.18;6.00;;;;;;;6.27;93.67;97811.59;4186070;28;20267;-88
2023/11/27 00:23:37;;;;;;;12.60;6.22;;;;;;;6.25;93.76;97812.59;4188691;28;20202;-89
2023/11/27 00:25:41;;;;;;;9.05;5.78;;;;;;;6.20;93.79;97805.06;4181471;28;20215;-88
2023/11/27 00:27:45;;;;;;;11.32;6.85;;;;;;;6.17;93.74;97800.06;4188030;28;20277;-89
2023/11/27 00:29:48;;;;;;;9.40;5.65;;;;;;;6.15;94.26;97798.50;4187713;28;20244;-88
2023/11/27 00:31:51;;;;;;;9.15;5.35;;;;;;;6.14;94.17;97804.59;4171800;28;20248;-88
2023/11/27 00:33:54;;;;;;;10.55;5.50;;;;;;;6.13;94.36;97795.16;4187810;28;20209;-89
2023/11/27 00:35:57;;;;;;;9.02;6.20;;;;;;;6.14;94.38;97789.06;4185857;28;20210;-88
2023/11/27 00:37:59;;;;;;;10.90;6.20;;;;;;;6.17;94.21;97800.06;4183979;28;20208;-89
2023/11/27 00:40:03;;;;;;;10.45;5.45;;;;;;;6.18;94.03;97786.22;4185874;28;20256;-89
2023/11/27 00:42:08;;;;;;;9.85;5.78;;;;;;;6.17;93.74;97778.53;4189687;28;20215;-88
2023/11/27 00:44:11;;;;;;;9.75;5.85;;;;;;;6.18;94.00;97780.22;4201455;28;20232;-88
2023/11/27 00:46:13;;;;;;;9.18;5.28;;;;;;;6.17;94.08;97779.38;4172614;28;20727;-89
2023/11/27 00:48:17;;;;;;;10.70;5.50;;;;;;;6.18;94.19;97781.03;4205099;28;20245;-88
2023/11/27 00:50:20;;;;;;;8.82;5.28;;;;;;;6.16;94.08;97775.13;4182934;28;20240;-88
2023/11/27 00:52:23;;;;;;;9.30;5.30;;;;;;;6.18;94.94;97769.88;4185898;28;20897;-88
2023/11/27 00:54:26;;;;;;;9.43;5.20;;;;;;;6.16;94.10;97769.94;4173705;28;20206;-88
2023/11/27 00:56:29;;;;;;;8.05;4.95;;;;;;;6.13;93.76;97766.69;4186792;28;20210;-88
2023/11/27 00:58:34;;;;;;;8.63;5.55;;;;;;;6.10;94.41;97762.53;4185528;28;20284;-88
2023/11/27 01:00:36;;;;;;;7.45;5.20;;;;;;;6.08;93.82;97759.16;4186308;28;20562;-87
2023/11/27 01:02:39;;;;;;;9.98;5.25;;;;;;;6.05;94.21;97761.09;4189025;28;20223;-88
2023/11/27 01:04:43;;;;;;;8.55;4.90;;;;;;;6.03;94.17;97760.38;4170642;28;20227;-88
2023/11/27 01:06:51;;;;;;;7.07;5.25;;;;;;;6.01;94.06;97754.41;4172230;28;20207;-88
2023/11/27 01:08:54;;;;;;;10.13;5.75;;;;;;;6.00;94.49;97751.91;4187438;28;20217;-88
2023/11/27 01:10:57;;;;;;;8.20;4.80;;;;;;;5.99;94.82;97743.31;4187656;28;20690;-88
2023/11/27 01:12:59;;;;;;;8.05;5.15;;;;;;;5.99;95.14;97743.31;4170675;28;20206;-88
2023/11/27 01:15:06;;;;;;;10.50;5.72;;;;;;;5.99;94.93;97743.31;4171430;28;20204;-87
2023/11/27 01:17:09;;;;;;;7.85;5.43;;;;;;;5.99;95.16;97742.50;4185794;28;20569;-87
2023/11/27 01:19:12;;;;;;;7.07;5.15;;;;;;;5.99;95.19;97735.56;4184509;28;20237;-88
2023/11/27 01:21:16;;;;;;;11.65;5.85;;;;;;;5.99;95.15;97727.81;4186550;28;20206;-88
2023/11/27 01:23:20;;;;;;;9.98;6.38;;;;;;;5.99;95.14;97726.97;4188000;28;20255;-88
2023/11/27 01:25:23;;;;;;;6.97;5.57;;;;;;;5.99;94.63;97724.41;4187733;28;20248;-88
2023/11/27 01:27:26;;;;;;;7.90;5.18;;;;;;;5.97;94.98;97729.66;4170215;28;20218;-88
2023/11/27 01:29:29;;;;;;;7.07;5.88;;;;;;;5.95;95.35;97712.53;4168001;28;20224;-88
2023/11/27 01:31:34;;;;;;;7.32;5.30;;;;;;;5.93;95.08;97716.97;4185646;28;20253;-88
2023/11/27 01:33:37;;;;;;;7.47;5.82;;;;;;;5.92;95.57;97704.94;4187438;28;20211;-88
2023/11/27 01:35:40;;;;;;;8.18;6.05;;;;;;;5.90;95.36;97697.28;4185009;28;20331;-88
2023/11/27 01:37:43;;;;;;;8.82;5.93;;;;;;;5.89;95.24;97699.94;4175411;28;20242;-88
2023/11/27 01:39:46;;;;;;;10.57;6.53;;;;;;;5.90;95.18;97696.44;4187085;28;20206;-89
2023/11/27 01:41:49;;;;;;;10.43;6.55;;;;;;;5.90;95.37;97691.28;4193087;28;20313;-88
2023/11/27 01:43:52;;;;;;;10.90;6.43;;;;;;;5.89;95.50;97681.81;4189287;28;20206;-88
2023/11/27 01:46:19;;;;;;;8.45;5.93;;;;;;;5.86;95.67;97680.22;4173365;28;20248;-88
2023/11/27 01:48:24;;;;;;;10.27;6.22;;;;;;;5.84;95.64;97676.91;4190473;28;20208;-88
2023/11/27 01:50:27;;;;;;;9.25;5.85;;;;;;;5.85;95.34;97668.25;4190563;28;20305;-87
2023/11/27 01:52:30;;;;;;;10.45;6.30;;;;;;;5.86;95.66;97669.88;4185700;28;20197;-88
2023/11/27 01:54:36;;;;;;;10.77;6.28;;;;;;;5.87;95.68;97661.22;4174600;28;20213;-88
2023/11/27 01:56:43;;;;;;;9.15;6.13;;;;;;;5.88;95.65;97659.44;4170165;28;20233;-88
2023/11/27 01:58:47;;;;;;;8.80;5.80;;;;;;;5.84;96.00;97653.63;4169609;28;20318;-89
2023/11/27 02:00:50;;;;;;;9.40;6.20;;;;;;;5.84;95.63;97652.81;4175759;28;20206;-88
2023/11/27 02:02:55;;;;;;;8.35;6.03;;;;;;;5.88;95.68;97647.38;4186170;28;20269;-88
2023/11/27 02:05:00;;;;;;;7.40;5.13;;;;;;;5.90;95.41;97644.69;4173390;28;20672;-88
2023/11/27 02:07:06;;;;;;;7.10;5.10;;;;;;;5.90;95.19;97639.53;4190023;28;20205;-88
2023/11/27 02:09:10;;;;;;;6.45;5.25;;;;;;;5.88;95.99;97642.19;4184526;28;20309;-88
2023/11/27 02:11:18;;;;;;;9.65;5.70;;;;;;;5.87;95.18;97642.28;4187583;28;20243;-88
2023/11/27 02:13:21;;;;;;;7.80;5.57;;;;;;;5.86;95.19;97638.84;4171329;28;20237;-87
2023/11/27 02:15:25;;;;;;;7.32;5.53;;;;;;;5.88;95.29;97631.84;4182892;28;20568;-88
2023/11/27 02:17:28;;;;;;;9.23;5.78;;;;;;;5.88;95.36;97634.44;4190564;28;20248;-88
2023/11/27 02:19:31;;;;;;;7.32;5.32;;;;;;;5.89;95.24;97630.09;4189000;28;20197;-88
2023/11/27 02:21:36;;;;;;;8.70;5.32;;;;;;;5.88;95.11;97629.25;4174169;28;20210;-88
2023/11/27 02:23:40;;;;;;;8.95;5.15;;;;;;;5.88;95.20;97631.84;4187437;28;20217;-88
2023/11/27 02:25:44;;;;;;;7.57;5.40;;;;;;;5.89;95.23;97624.91;4169620;28;20286;-88
2023/11/27 02:27:47;;;;;;;8.25;5.32;;;;;;;5.86;95.46;97622.50;4190264;28;20329;-88
2023/11/27 02:29:50;;;;;;;7.45;5.30;;;;;;;5.84;95.69;97619.19;4191068;28;20300;-88
2023/11/27 02:31:53;;;;;;;7.80;5.75;;;;;;;5.83;95.29;97618.34;4171271;28;20241;-88
2023/11/27 02:33:56;;;;;;;8.73;5.63;;;;;;;5.85;95.45;97624.25;4188899;28;20201;-88
2023/11/27 02:36:00;;;;;;;7.47;5.80;;;;;;;5.85;95.39;97621.69;4191228;28;20206;-88
2023/11/27 02:38:03;;;;;;;8.30;5.68;;;;;;;5.87;95.23;97629.34;4187836;28;20289;-89
2023/11/27 02:40:11;;;;;;;6.43;5.18;;;;;;;5.85;95.43;97623.41;4183408;28;20793;-89
2023/11/27 02:42:14;;;;;;;7.75;5.75;;;;;;;5.84;95.35;97625.16;4192137;28;20292;-88
2023/11/27 02:44:17;;;;;;;7.75;4.78;;;;;;;5.84;95.78;97626.94;4188989;28;20209;-88
2023/11/27 02:46:21;;;;;;;7.97;5.43;;;;;;;5.84;95.45;97621.75;4184164;28;20246;-88
2023/11/27 02:48:24;;;;;;;10.15;5.50;;;;;;;5.84;95.40;97621.75;4189702;28;20206;-88
2023/11/27 02:50:27;;;;;;;6.53;5.47;;;;;;;5.81;95.78;97615.00;4184867;28;20309;-87
2023/11/27 02:52:30;;;;;;;7.43;5.70;;;;;;;5.80;95.32;97617.66;4172923;28;20209;-88
2023/11/27 02:54:33;;;;;;;12.15;6.10;;;;;;;5.78;95.54;97611.75;4187962;28;20617;-88
2023/11/27 02:56:39;;;;;;;9.00;6.18;;;;;;;5.77;95.41;97615.25;4200532;28;20205;-88
2023/11/27 02:58:43;;;;;;;10.27;6.35;;;;;;;5.77;95.27;97613.53;4188763;28;20212;-88
2023/11/27 03:00:46;;;;;;;9.07;5.70;;;;;;;5.74;95.15;97607.66;4170788;28;20273;-89
2023/11/27 03:02:50;;;;;;;8.10;5.70;;;;;;;5.74;95.31;97608.53;4185682;28;20307;-88
2023/11/27 03:04:53;;;;;;;7.93;5.18;;;;;;;5.73;95.74;97603.41;4167891;28;20830;-89
2023/11/27 03:06:55;;;;;;;12.07;5.90;;;;;;;5.69;95.81;97604.50;4174184;28;20248;-88
2023/11/27 03:08:59;;;;;;;9.85;5.95;;;;;;;5.70;96.20;97606.16;4189578;28;20209;-89
2023/11/27 03:11:03;;;;;;;9.75;6.20;;;;;;;5.70;95.86;97604.41;4187427;28;20271;-88
2023/11/27 03:13:07;;;;;;;8.02;5.82;;;;;;;5.67;96.03;97603.75;4187851;28;20704;-88
2023/11/27 03:15:11;;;;;;;7.47;5.65;;;;;;;5.66;96.13;97594.31;4185427;28;20203;-89
2023/11/27 03:17:13;;;;;;;11.00;5.57;;;;;;;5.66;96.05;97591.75;4186943;28;20693;-88
2023/11/27 03:19:16;;;;;;;11.48;6.28;;;;;;;5.68;95.66;97597.66;4199575;28;20224;-88
2023/11/27 03:21:20;;;;;;;12.30;5.93;;;;;;;5.62;96.21;97588.50;4170441;28;20202;-88
2023/11/27 03:23:24;;;;;;;9.55;6.55;;;;;;;5.57;95.78;97589.66;4186264;28;20233;-88
2023/11/27 03:25:27;;;;;;;10.25;5.38;;;;;;;5.55;95.82;97586.34;4186344;28;20212;-88
2023/11/27 03:27:29;;;;;;;8.50;6.18;;;;;;;5.55;96.11;97581.19;4169783;28;20234;-87
2023/11/27 03:29:34;;;;;;;8.02;5.85;;;;;;;5.55;96.03;97580.31;4173307;28;20611;-88
2023/11/27 03:31:37;;;;;;;7.90;5.50;;;;;;;5.54;95.84;97579.50;4203399;28;20265;-89
2023/11/27 03:33:40;;;;;;;7.32;5.78;;;;;;;5.54;95.83;97569.16;4183801;28;20222;-88
2023/11/27 03:35:44;;;;;;;7.20;5.22;;;;;;;5.54;96.03;97558.00;4188225;28;20321;-88
2023/11/27 03:37:47;;;;;;;7.75;5.95;;;;;;;5.53;96.77;97557.13;4189667;28;20203;-88
2023/11/27 03:39:49;;;;;;;8.02;5.50;;;;;;;5.54;96.17;97561.41;4184534;28;20205;-89
2023/11/27 03:41:53;;;;;;;10.25;6.38;;;;;;;5.56;96.12;97562.13;4169947;28;20206;-89
2023/11/27 03:43:56;;;;;;;11.65;6.35;;;;;;;5.56;96.25;97558.72;4186842;28;20594;-88
2023/11/27 03:46:00;;;;;;;6.63;5.07;;;;;;;5.56;96.52;97562.13;4187443;28;20202;-88
2023/11/27 03:48:05;;;;;;;9.52;5.20;;;;;;;5.55;96.20;97560.50;4173517;28;20252;-89
2023/11/27 03:50:10;;;;;;;8.48;6.10;;;;;;;5.55;96.17;97564.81;4185963;28;20201;-88
2023/11/27 03:52:14;;;;;;;8.18;5.00;;;;;;;5.54;96.50;97563.16;4171047;28;20253;-89
2023/11/27 03:54:17;;;;;;;6.75;5.28;;;;;;;5.53;96.28;97567.47;4189197;28;20205;-89
2023/11/27 03:56:21;;;;;;;6.40;5.35;;;;;;;5.56;96.23;97566.47;4190013;28;20232;-89
2023/11/27 03:58:24;;;;;;;8.50;5.00;;;;;;;5.59;96.33;97558.56;4186218;28;20206;-88
2023/11/27 04:00:27;;;;;;;9.02;5.07;;;;;;;5.60;96.19;97559.28;4183913;28;20642;-88
2023/11/27 04:02:31;;;;;;;18.00;7.97;;;;;;;5.60;95.75;97551.53;4186171;28;20242;-89
2023/11/27 04:04:34;;;;;;;12.95;8.90;;;;;;;5.50;95.21;97551.31;4186419;28;20228;-88
2023/11/27 04:06:37;;;;;;;16.85;8.30;;;;;;;5.47;95.68;97547.13;4187179;28;20300;-88
2023/11/27 04:08:41;;;;;;;10.60;6.75;;;;;;;5.42;95.89;97546.59;4199370;28;20197;-88
2023/11/27 04:10:45;;;;;;;12.48;6.82;;;;;;;5.44;95.83;97541.31;4189557;28;20264;-88
2023/11/27 04:12:47;;;;;;;7.65;4.90;;;;;;;5.43;96.34;97544.84;4188044;28;20221;-89
2023/11/27 04:14:51;;;;;;;7.45;5.90;;;;;;;5.38;95.83;97544.25;4182776;28;20271;-89
2023/11/27 04:16:54;;;;;;;7.00;5.53;;;;;;;5.38;96.86;97539.94;4200100;28;20208;-89
2023/11/27 04:18:59;;;;;;;7.15;5.40;;;;;;;5.35;95.92;97540.13;4184724;28;20197;-88
2023/11/27 04:21:02;;;;;;;8.13;5.22;;;;;;;5.35;96.36;97537.53;4175112;28;20228;-88
2023/11/27 04:23:05;;;;;;;8.50;4.90;;;;;;;5.37;96.55;97540.03;4183759;28;20198;-88
2023/11/27 04:25:09;;;;;;;7.45;5.60;;;;;;;5.38;96.73;97526.16;4183896;28;20264;-88
2023/11/27 04:27:12;;;;;;;5.75;5.05;;;;;;;5.37;96.63;97530.50;4169540;28;20202;-88
2023/11/27 04:29:15;;;;;;;6.82;4.70;;;;;;;5.38;96.70;97527.00;4185310;28;20318;-88
2023/11/27 04:31:19;;;;;;;7.30;4.43;;;;;;;5.42;96.46;97528.47;4189107;28;20229;-89
2023/11/27 04:33:22;;;;;;;6.80;4.50;;;;;;;5.41;97.13;97516.50;4186086;28;20224;-89
2023/11/27 04:35:27;;;;;;;9.00;4.82;;;;;;;5.46;96.84;97514.47;4188093;28;20209;-88
2023/11/27 04:37:30;;;;;;;5.20;4.22;;;;;;;5.49;96.72;97513.44;4170280;28;20225;-89
2023/11/27 04:39:33;;;;;;;5.10;4.38;;;;;;;5.51;96.70;97512.44;4188660;28;20672;-88
2023/11/27 04:41:36;;;;;;;8.52;5.03;;;;;;;5.56;96.89;97514.78;4188232;28;20244;-89
2023/11/27 04:43:39;;;;;;;7.07;4.72;;;;;;;5.57;96.34;97504.34;4181747;28;20253;-89
2023/11/27 04:45:43;;;;;;;9.95;4.75;;;;;;;5.58;96.12;97508.59;4184035;28;20596;-88
2023/11/27 04:47:46;;;;;;;6.53;4.50;;;;;;;5.59;96.10;97512.00;4189443;28;20205;-89
2023/11/27 04:49:48;;;;;;;5.93;4.40;;;;;;;5.57;95.95;97506.09;4186630;28;20206;-89
2023/11/27 04:51:52;;;;;;;5.97;3.90;;;;;;;5.58;95.76;97512.91;4186921;28;20208;-89
2023/11/27 04:53:55;;;;;;;6.47;4.20;;;;;;;5.58;95.97;97515.50;4188229;28;20256;-89
2023/11/27 04:55:59;;;;;;;7.07;4.22;;;;;;;5.59;95.74;97505.06;4190418;28;20206;-88
2023/11/27 04:58:01;;;;;;;7.10;4.20;;;;;;;5.58;95.34;97498.25;4175736;28;20207;-89
2023/11/27 05:00:06;;;;;;;5.03;3.85;;;;;;;5.56;95.55;97500.06;4190572;28;20300;-88
2023/11/27 05:02:09;;;;;;;5.90;4.00;;;;;;;5.56;95.29;97497.50;4184087;28;20836;-89
2023/11/27 05:04:17;;;;;;;9.80;4.70;;;;;;;5.56;95.31;97494.91;4186379;28;20221;-88
2023/11/27 05:06:21;;;;;;;6.93;4.65;;;;;;;5.55;95.52;97482.91;4190904;28;20202;-88
2023/11/27 05:08:25;;;;;;;6.45;4.50;;;;;;;5.55;94.93;97479.47;4189583;28;20210;-88
2023/11/27 05:10:29;;;;;;;7.97;5.05;;;;;;;5.55;94.63;97476.88;4186369;28;20288;-88
2023/11/27 05:12:32;;;;;;;6.97;4.95;;;;;;;5.51;94.67;97471.06;4192692;28;20224;-89
2023/11/27 05:14:35;;;;;;;8.43;5.05;;;;;;;5.49;95.42;97469.50;4177223;28;20225;-88
2023/11/27 05:16:38;;;;;;;7.50;5.25;;;;;;;5.47;95.60;97467.00;4191521;28;20851;-88
2023/11/27 05:18:43;;;;;;;8.90;5.13;;;;;;;5.44;95.11;97464.63;4193133;28;20205;-89
2023/11/27 05:20:46;;;;;;;6.85;4.90;;;;;;;5.40;94.82;97457.94;4194100;28;20209;-88
2023/11/27 05:22:50;;;;;;;5.05;4.05;;;;;;;5.38;95.27;97451.19;4191123;28;20284;-89
2023/11/27 05:24:54;;;;;;;5.80;4.15;;;;;;;5.35;95.29;97449.63;4175140;28;20276;-88
2023/11/27 05:26:59;;;;;;;4.85;4.03;;;;;;;5.34;95.14;97440.22;4174355;28;20206;-89
2023/11/27 05:29:05;;;;;;;5.78;3.85;;;;;;;5.34;95.59;97447.97;4176661;28;20297;-88
2023/11/27 05:31:09;;;;;;;5.40;4.30;;;;;;;5.34;95.64;97447.97;4186219;28;20222;-88
2023/11/27 05:33:12;;;;;;;6.55;4.45;;;;;;;5.31;94.82;97442.16;4189282;28;20234;-89
2023/11/27 05:35:16;;;;;;;6.75;4.82;;;;;;;5.31;95.46;97448.16;4175559;28;20202;-89
2023/11/27 05:37:19;;;;;;;5.28;4.55;;;;;;;5.31;96.10;97442.16;4190115;28;20209;-88
2023/11/27 05:39:22;;;;;;;7.53;6.38;;;;;;;5.31;95.90;97436.97;4175798;28;20199;-89
2023/11/27 05:41:27;;;;;;;10.02;6.60;;;;;;;5.29;95.97;97425.88;4173398;28;20217;-83
2023/11/27 05:43:31;;;;;;;6.78;5.20;;;;;;;5.29;96.23;97433.63;4188523;28;20248;-87
2023/11/27 05:45:35;;;;;;;9.20;4.28;;;;;;;5.27;95.65;97433.72;4189889;28;20236;-87
2023/11/27 05:47:38;;;;;;;6.28;4.72;;;;;;;5.26;95.56;97432.09;4189890;28;20271;-86
2023/11/27 05:49:41;;;;;;;5.78;4.30;;;;;;;5.25;95.68;97417.47;4188443;28;20198;-87
2023/11/27 05:51:45;;;;;;;5.40;4.18;;;;;;;5.22;95.08;97422.84;4187457;28;20288;-87
2023/11/27 05:53:48;;;;;;;6.57;4.40;;;;;;;5.23;95.49;97421.91;4184185;28;20229;-87
2023/11/27 05:55:51;;;;;;;7.13;4.20;;;;;;;5.22;94.87;97420.25;4171936;28;20202;-86
2023/11/27 05:57:55;;;;;;;5.05;4.05;;;;;;;5.19;95.51;97415.25;4184974;28;20198;-86
2023/11/27 05:59:58;;;;;;;5.85;4.00;;;;;;;5.19;95.44;97423.00;4187728;28;20295;-88
2023/11/27 06:02:01;;;;;;;5.63;4.35;;;;;;;5.19;95.48;97425.59;4188302;28;20209;-87
2023/11/27 06:04:05;;;;;;;5.47;4.22;;;;;;;5.18;94.93;97421.34;4190795;28;20642;-87
2023/11/27 06:06:09;;;;;;;7.30;5.40;;;;;;;5.19;95.04;97422.19;4188604;28;20716;-88
2023/11/27 06:08:11;;;;;;;7.50;5.80;;;;;;;5.19;95.85;97417.84;4187507;28;20198;-87
2023/11/27 06:10:15;;;;;;;6.50;4.85;;;;;;;5.18;96.07;97423.91;4175950;28;20214;-87
2023/11/27 06:12:18;;;;;;;12.90;9.27;;;;;;;5.19;96.10;97417.84;4190610;28;20209;-87
2023/11/27 06:14:23;;;;;;;7.20;5.15;;;;;;;5.18;95.96;97415.34;4185408;28;20267;-88
2023/11/27 06:16:26;;;;;;;7.13;6.00;;;;;;;5.16;94.91;97410.25;4197168;28;20839;-87
2023/11/27 06:18:29;;;;;;;7.00;5.40;;;;;;;5.13;94.91;97409.63;4185027;28;20593;-86
2023/11/27 06:20:33;;;;;;;7.30;5.55;;;;;;;5.08;95.49;97397.88;4188064;28;20676;-87
2023/11/27 06:22:36;;;;;;;7.40;5.32;;;;;;;5.04;95.19;97392.06;4174674;28;20728;-87
2023/11/27 06:24:39;;;;;;;9.65;4.47;;;;;;;5.01;95.05;97394.00;4189445;28;20235;-87
2023/11/27 06:26:42;;;;;;;5.88;4.05;;;;;;;4.97;95.41;97385.56;4170323;28;20206;-87
2023/11/27 06:28:45;;;;;;;6.18;4.88;;;;;;;4.98;95.53;97383.84;4186808;28;20601;-87
2023/11/27 06:30:51;;;;;;;7.53;4.68;;;;;;;4.99;95.54;97385.50;4170210;28;20209;-86
2023/11/27 06:32:55;;;;;;;7.03;4.05;;;;;;;4.99;94.67;97388.06;4188149;28;20205;-86
2023/11/27 06:34:58;;;;;;;6.82;4.18;;;;;;;5.00;94.56;97389.75;4168865;28;20768;-86
2023/11/27 06:37:02;;;;;;;7.63;4.43;;;;;;;5.05;95.10;97387.72;4173561;28;20556;-86
2023/11/27 06:39:05;;;;;;;6.53;3.85;;;;;;;5.03;94.67;97386.97;4189141;28;20206;-86
2023/11/27 06:41:08;;;;;;;5.10;3.63;;;;;;;5.00;94.40;97385.41;4192108;28;20297;-88
2023/11/27 06:43:10;;;;;;;5.50;3.83;;;;;;;4.99;95.51;97375.16;4208883;28;20303;-87
2023/11/27 06:45:14;;;;;;;5.03;3.95;;;;;;;4.97;95.86;97375.25;4188145;28;20743;-87
2023/11/27 06:47:17;;;;;;;5.25;3.83;;;;;;;4.95;94.79;97376.28;4176719;28;21092;-86
2023/11/27 06:49:20;;;;;;;5.97;3.50;;;;;;;4.95;95.62;97365.94;4167922;28;20697;-87
2023/11/27 06:51:24;;;;;;;6.55;3.70;;;;;;;4.93;94.68;97367.75;4172771;28;20198;-87
2023/11/27 06:53:27;;;;;;;5.28;3.40;;;;;;;4.95;95.21;97371.09;4191275;28;20262;-87
2023/11/27 06:55:29;;;;;;;4.72;3.05;;;;;;;4.96;94.55;97368.44;4192034;28;20204;-86
2023/11/27 06:57:33;;;;;;;5.07;3.28;;;;;;;4.98;94.64;97376.09;4190872;28;20668;-87
2023/11/27 06:59:37;;;;;;;4.15;3.20;;;;;;;4.97;95.39;97371.84;4193902;28;20212;-86
2023/11/27 07:01:41;;;;;;;5.22;3.92;;;;;;;4.96;94.63;97367.59;4187106;28;20683;-87
2023/11/27 07:03:46;;;;;;;10.63;4.60;;;;;;;4.97;95.69;97364.91;4194483;28;20229;-86
2023/11/27 07:05:49;;;;;;;6.35;4.45;;;;;;;5.00;94.71;97369.09;4191974;28;20268;-86
2023/11/27 07:07:52;;;;;;;5.85;4.35;;;;;;;5.02;95.44;97356.91;4188597;28;20206;-86
2023/11/27 07:09:56;;;;;;;6.50;4.55;;;;;;;5.01;95.44;97361.25;4179058;28;20197;-87
2023/11/27 07:11:59;;;;;;;6.55;5.10;;;;;;;5.02;95.25;97368.09;4187631;28;20186;-86
2023/11/27 07:14:02;;;;;;;5.32;4.10;;;;;;;5.03;95.20;97354.22;4179502;28;20198;-86
2023/11/27 07:16:06;;;;;;;6.82;4.43;;;;;;;5.01;96.38;97352.66;4187355;28;20190;-87
2023/11/27 07:18:10;;;;;;;5.85;4.65;;;;;;;5.02;96.30;97354.31;4176665;28;20257;-86
2023/11/27 07:20:23;;;;;;;6.75;5.38;;;;;;;5.01;96.00;97343.16;4171841;28;20210;-86
2023/11/27 07:22:26;;;;;;;6.80;5.00;;;;;;;5.00;96.75;97345.84;4169866;28;20203;-86
2023/11/27 07:24:30;;;;;;;7.43;5.63;;;;;;;5.02;96.59;97338.81;4190549;28;20213;-86
2023/11/27 07:26:33;;;;;;;6.05;4.57;;;;;;;5.04;96.48;97340.41;4190446;28;20694;-86
2023/11/27 07:28:37;;;;;;;8.05;4.93;;;;;;;5.07;95.85;97341.97;4173900;28;20257;-86
2023/11/27 07:30:40;;;;;;;8.52;4.68;;;;;;;5.05;95.92;97334.31;4187015;28;20482;-86
2023/11/27 07:32:44;;;;;;;6.88;4.13;;;;;;;5.05;95.65;97330.88;4171259;28;20626;-86
2023/11/27 07:34:47;;;;;;;5.00;3.90;;;;;;;5.04;96.50;97326.66;4190527;28;20209;-86
2023/11/27 07:36:52;;;;;;;10.23;5.20;;;;;;;5.04;96.39;97327.47;4190045;28;20263;-86
2023/11/27 07:38:55;;;;;;;9.45;7.03;;;;;;;5.03;96.51;97330.97;4191120;28;20643;-87
2023/11/27 07:40:59;;;;;;;9.68;5.22;;;;;;;5.03;96.30;97323.22;4175694;28;20213;-86
2023/11/27 07:43:02;;;;;;;7.70;6.53;;;;;;;5.05;95.39;97317.97;4202060;28;20639;-87
2023/11/27 07:45:07;;;;;;;7.90;5.90;;;;;;;5.04;95.63;97314.56;4186443;28;20248;-87
2023/11/27 07:47:11;;;;;;;6.35;4.45;;;;;;;5.09;95.23;97309.13;4192776;28;20200;-87
2023/11/27 07:49:14;;;;;;;5.82;3.90;;;;;;;5.13;94.65;97309.66;4176701;28;20198;-86
2023/11/27 07:51:18;;;;;;;4.63;3.40;;;;;;;5.18;94.79;97307.63;4168087;28;20206;-86
2023/11/27 07:53:24;;;;;;;3.90;2.75;;;;;;;5.25;95.13;97308.94;4172783;28;20291;-87
2023/11/27 07:55:27;;;;;;;4.47;3.13;;;;;;;5.30;94.34;97304.31;4177438;28;20197;-87
2023/11/27 07:57:32;;;;;;;4.78;3.25;;;;;;;5.35;94.27;97304.91;4185319;28;20206;-88
2023/11/27 07:59:35;;;;;;;4.68;3.20;;;;;;;5.40;93.73;97292.50;4200415;28;20209;-88
2023/11/27 08:01:38;;;;;;;4.70;3.40;;;;;;;5.45;93.61;97290.47;4187320;28;20194;-87
2023/11/27 08:03:42;;;;;;;4.15;3.05;;;;;;;5.48;93.54;97298.03;4185897;28;20213;-87
2023/11/27 08:05:45;;;;;;;4.40;3.05;;;;;;;5.53;93.55;97287.41;4192834;28;20304;-87
2023/11/27 08:07:48;;;;;;;6.63;4.55;;;;;;;5.56;93.06;97282.06;4185804;28;20206;-85
2023/11/27 08:09:54;;;;;;;5.78;4.35;;;;;;;5.60;92.93;97283.53;4186305;28;20212;-85
2023/11/27 08:11:57;;;;;;;8.13;5.60;;;;;;;5.64;92.68;97285.84;4166842;28;20206;-85
2023/11/27 08:13:59;;;;;;;6.10;3.60;;;;;;;5.68;92.68;97277.81;4186565;28;20223;-86
2023/11/27 08:16:04;;;;;;;9.25;5.75;;;;;;;5.70;91.73;97275.13;4170515;28;20237;-86
2023/11/27 08:18:07;;;;;;;9.07;5.55;;;;;;;5.72;91.60;97281.00;4191115;28;20194;-86
2023/11/27 08:20:11;;;;;;;5.22;3.83;;;;;;;5.78;91.59;97273.72;4178552;28;20669;-87
2023/11/27 08:22:15;;;;;;;5.43;4.00;;;;;;;5.83;91.53;97276.88;4172899;28;20744;-87
2023/11/27 08:24:18;;;;;;;7.45;4.35;;;;;;;5.87;90.84;97282.69;4172342;28;20206;-86
2023/11/27 08:26:23;;;;;;;11.27;5.70;;;;;;;5.84;89.95;97277.69;4185795;28;20264;-86
2023/11/27 08:28:26;;;;;;;8.27;5.32;;;;;;;5.86;89.95;97271.47;4171269;28;20740;-86
2023/11/27 08:30:32;;;;;;;5.68;4.25;;;;;;;5.87;90.59;97264.56;4171129;28;20571;-86
2023/11/27 08:32:36;;;;;;;5.82;4.43;;;;;;;5.94;89.95;97268.41;4192010;28;20255;-87
2023/11/27 08:34:39;;;;;;;5.03;3.75;;;;;;;5.90;89.76;97260.03;4177045;28;20299;-87
2023/11/27 08:36:42;;;;;;;7.50;4.82;;;;;;;5.93;90.04;97261.59;4174565;28;20372;-87
2023/11/27 08:38:48;;;;;;;5.68;3.80;;;;;;;5.97;90.01;97257.88;4187910;28;20205;-87
2023/11/27 08:40:51;;;;;;;4.72;3.70;;;;;;;6.02;90.12;97255.84;4192157;28;20206;-87
2023/11/27 08:42:56;;;;;;;4.22;3.08;;;;;;;6.07;89.32;97251.19;4197832;28;20205;-87
2023/11/27 08:45:00;;;;;;;5.20;3.10;;;;;;;6.08;89.01;97250.28;4187017;28;20229;-86
2023/11/27 08:47:05;;;;;;;4.50;3.03;;;;;;;6.10;89.53;97252.66;4188022;28;20355;-87
2023/11/27 08:49:09;;;;;;;4.22;3.60;;;;;;;6.14;89.00;97243.75;4207467;28;20201;-87
2023/11/27 08:51:13;;;;;;;3.95;3.30;;;;;;;6.18;88.87;97252.19;4178814;28;20190;-87
2023/11/27 08:53:17;;;;;;;4.57;3.13;;;;;;;6.18;88.91;97245.22;4194376;28;20201;-87
2023/11/27 08:55:23;;;;;;;5.80;3.20;;;;;;;6.22;88.77;97243.25;4187371;28;20202;-86
2023/11/27 08:57:27;;;;;;;4.72;2.97;;;;;;;6.26;88.31;97237.78;4195373;28;20206;-87
2023/11/27 08:59:32;;;;;;;4.85;3.20;;;;;;;6.30;88.88;97228.91;4177202;28;20203;-87
2023/11/27 09:01:35;;;;;;;3.90;3.33;;;;;;;6.34;88.24;97232.13;4187435;28;20198;-87
2023/11/27 09:03:38;;;;;;;5.70;3.75;;;;;;;6.38;88.86;97226.63;4183696;28;20208;-87
2023/11/27 09:05:42;;;;;;;6.35;3.75;;;;;;;6.42;88.86;97230.69;4185213;28;20364;-87
2023/11/27 09:07:53;;;;;;;4.97;3.30;;;;;;;6.44;89.08;97222.81;4169159;28;20685;-86
2023/11/27 09:09:56;;;;;;;4.80;3.10;;;;;;;6.48;88.61;97219.09;4179665;28;20208;-87
2023/11/27 09:11:59;;;;;;;5.00;3.25;;;;;;;6.50;88.18;97218.06;4188787;28;20859;-87
2023/11/27 09:14:03;;;;;;;5.50;3.28;;;;;;;6.52;88.11;97210.19;4173792;28;20210;-87
2023/11/27 09:16:10;;;;;;;4.70;4.00;;;;;;;6.54;87.70;97208.31;4200383;28;20205;-87
2023/11/27 09:18:14;;;;;;;5.43;3.33;;;;;;;6.51;87.59;97204.19;4189013;28;20240;-86
2023/11/27 09:20:17;;;;;;;4.60;3.05;;;;;;;6.49;87.73;97203.44;4192656;28;20201;-87
2023/11/27 09:22:21;;;;;;;4.82;3.22;;;;;;;6.43;87.85;97193.50;4173660;28;20302;-86
2023/11/27 09:24:24;;;;;;;5.57;3.78;;;;;;;6.47;87.96;97192.38;4196332;28;20304;-87
2023/11/27 09:26:26;;;;;;;6.25;3.88;;;;;;;6.48;87.80;97194.03;4178535;28;20256;-87
2023/11/27 09:28:30;;;;;;;5.03;3.72;;;;;;;6.50;86.99;97191.34;4208000;28;20279;-87
2023/11/27 09:30:34;;;;;;;4.63;3.35;;;;;;;6.49;87.09;97194.84;4187042;28;20604;-87
2023/11/27 09:32:39;;;;;;;5.93;3.72;;;;;;;6.53;86.92;97189.38;4191303;28;20702;-87
2023/11/27 09:34:43;;;;;;;4.32;3.17;;;;;;;6.55;86.99;97190.09;4186596;28;20228;-86
2023/11/27 09:36:46;;;;;;;5.55;3.75;;;;;;;6.60;87.44;97180.28;4202934;28;20219;-86
2023/11/27 09:39:06;;;;;;;5.47;3.75;;;;;;;6.63;86.92;97180.03;4178748;28;20213;-87
2023/11/27 09:41:09;;;;;;;5.13;3.50;;;;;;;6.65;87.04;97181.59;4187063;28;20237;-87
2023/11/27 09:43:13;;;;;;;5.38;3.70;;;;;;;6.69;87.35;97177.03;4193048;28;20202;-87
2023/11/27 09:45:16;;;;;;;7.53;5.22;;;;;;;6.67;86.56;97171.13;4194741;28;20235;-87
2023/11/27 09:47:21;;;;;;;5.65;3.75;;;;;;;6.72;86.25;97174.22;4188347;28;20775;-87
2023/11/27 09:49:26;;;;;;;6.20;4.03;;;;;;;6.78;86.89;97168.63;4166404;28;20215;-86